sensor_id;sensor_type;location;lat;lon;timestamp;P1;durP1;ratioP1;P2;durP2;ratioP2
61956;SDS011;47916;45.544;10.166;2022-09-02T00:00:00;2.95;;;0.90;;
61956;SDS011;47916;45.544;10.166;2022-09-02T00:00:12;4.00;;;0.88;;
61956;SDS011;47916;45.544;10.166;2022-09-02T00:00:24;3.03;;;0.70;;
61956;SDS011;47916;45.544;10.166;2022-09-02T00:00:35;1.85;;;0.60;;
61956;SDS011;47916;45.544;10.166;2022-09-02T00:00:48;1.73;;;0.60;;
61956;SDS011;47916;45.544;10.166;2022-09-02T00:01:01;1.67;;;0.73;;
61956;SDS011;47916;45.544;10.166;2022-09-02T00:01:20;1.83;;;0.90;;
61956;SDS011;47916;45.544;10.166;2022-09-02T00:01:33;2.33;;;0.88;;
61956;SDS011;47916;45.544;10.166;2022-09-02T00:01:45;1.88;;;0.77;;
61956;SDS011;47916;45.544;10.166;2022-09-02T00:01:57;1.80;;;0.80;;
61956;SDS011;47916;45.544;10.166;2022-09-02T00:02:08;1.20;;;0.70;;
61956;SDS011;47916;45.544;10.166;2022-09-02T00:02:20;3.00;;;0.63;;
61956;SDS011;47916;45.544;10.166;2022-09-02T00:02:31;4.40;;;0.70;;
61956;SDS011;47916;45.544;10.166;2022-09-02T00:02:43;3.72;;;0.70;;
61956;SDS011;47916;45.544;10.166;2022-09-02T00:02:54;1.58;;;0.60;;
61956;SDS011;47916;45.544;10.166;2022-09-02T00:03:06;0.95;;;0.60;;
61956;SDS011;47916;45.544;10.166;2022-09-02T00:03:17;1.60;;;0.90;;
61956;SDS011;47916;45.544;10.166;2022-09-02T00:03:31;1.88;;;0.90;;
61956;SDS011;47916;45.544;10.166;2022-09-02T00:03:43;3.42;;;0.65;;
61956;SDS011;47916;45.544;10.166;2022-09-02T00:03:55;3.50;;;0.70;;
61956;SDS011;47916;45.544;10.166;2022-09-02T00:04:17;2.25;;;0.70;;
61956;SDS011;47916;45.544;10.166;2022-09-02T00:04:29;1.50;;;0.55;;
61956;SDS011;47916;45.544;10.166;2022-09-02T00:04:41;1.33;;;0.60;;
61956;SDS011;47916;45.544;10.166;2022-09-02T00:04:53;1.52;;;0.77;;
61956;SDS011;47916;45.544;10.166;2022-09-02T00:05:04;1.70;;;0.80;;
61956;SDS011;47916;45.544;10.166;2022-09-02T00:05:16;1.70;;;0.80;;
61956;SDS011;47916;45.544;10.166;2022-09-02T00:05:27;1.45;;;0.70;;
61956;SDS011;47916;45.544;10.166;2022-09-02T00:05:39;2.60;;;0.80;;
61956;SDS011;47916;45.544;10.166;2022-09-02T00:05:50;3.20;;;0.93;;
61956;SDS011;47916;45.544;10.166;2022-09-02T00:06:02;4.00;;;0.98;;
61956;SDS011;47916;45.544;10.166;2022-09-02T00:06:14;3.83;;;0.90;;
61956;SDS011;47916;45.544;10.166;2022-09-02T00:06:25;4.50;;;0.95;;
61956;SDS011;47916;45.544;10.166;2022-09-02T00:06:37;2.50;;;0.80;;
61956;SDS011;47916;45.544;10.166;2022-09-02T00:06:49;1.65;;;0.63;;
61956;SDS011;47916;45.544;10.166;2022-09-02T00:07:00;1.10;;;0.60;;
61956;SDS011;47916;45.544;10.166;2022-09-02T00:07:12;1.65;;;1.02;;
61956;SDS011;47916;45.544;10.166;2022-09-02T00:07:23;1.90;;;1.20;;
61956;SDS011;47916;45.544;10.166;2022-09-02T00:07:34;3.83;;;1.15;;
61956;SDS011;47916;45.544;10.166;2022-09-02T00:07:46;3.42;;;0.77;;
61956;SDS011;47916;45.544;10.166;2022-09-02T00:07:57;5.30;;;0.70;;
61956;SDS011;47916;45.544;10.166;2022-09-02T00:08:08;3.33;;;0.60;;
61956;SDS011;47916;45.544;10.166;2022-09-02T00:08:20;2.97;;;0.70;;
61956;SDS011;47916;45.544;10.166;2022-09-02T00:08:31;1.45;;;0.70;;
61956;SDS011;47916;45.544;10.166;2022-09-02T00:08:42;1.13;;;0.65;;
61956;SDS011;47916;45.544;10.166;2022-09-02T00:08:54;1.60;;;0.60;;
61956;SDS011;47916;45.544;10.166;2022-09-02T00:09:06;1.92;;;0.60;;
61956;SDS011;47916;45.544;10.166;2022-09-02T00:09:19;2.80;;;0.85;;
61956;SDS011;47916;45.544;10.166;2022-09-02T00:09:30;2.88;;;1.30;;
61956;SDS011;47916;45.544;10.166;2022-09-02T00:09:41;2.83;;;1.27;;
61956;SDS011;47916;45.544;10.166;2022-09-02T00:09:53;2.05;;;0.93;;
61956;SDS011;47916;45.544;10.166;2022-09-02T00:10:04;2.45;;;1.02;;
61956;SDS011;47916;45.544;10.166;2022-09-02T00:10:15;3.22;;;1.33;;
61956;SDS011;47916;45.544;10.166;2022-09-02T00:10:26;3.87;;;1.80;;
61956;SDS011;47916;45.544;10.166;2022-09-02T00:10:39;3.40;;;1.58;;
61956;SDS011;47916;45.544;10.166;2022-09-02T00:10:51;2.17;;;0.95;;
61956;SDS011;47916;45.544;10.166;2022-09-02T00:11:02;2.70;;;1.10;;
61956;SDS011;47916;45.544;10.166;2022-09-02T00:11:16;2.97;;;1.00;;
61956;SDS011;47916;45.544;10.166;2022-09-02T00:11:29;2.53;;;0.77;;
61956;SDS011;47916;45.544;10.166;2022-09-02T00:11:42;2.50;;;0.80;;
61956;SDS011;47916;45.544;10.166;2022-09-02T00:11:54;1.63;;;0.75;;
61956;SDS011;47916;45.544;10.166;2022-09-02T00:12:06;1.25;;;0.68;;
61956;SDS011;47916;45.544;10.166;2022-09-02T00:12:18;1.60;;;0.88;;
61956;SDS011;47916;45.544;10.166;2022-09-02T00:12:29;1.70;;;1.00;;
61956;SDS011;47916;45.544;10.166;2022-09-02T00:12:40;2.83;;;1.55;;
61956;SDS011;47916;45.544;10.166;2022-09-02T00:12:52;3.03;;;1.40;;
61956;SDS011;47916;45.544;10.166;2022-09-02T00:13:03;3.10;;;1.13;;
61956;SDS011;47916;45.544;10.166;2022-09-02T00:13:15;1.95;;;0.70;;
61956;SDS011;47916;45.544;10.166;2022-09-02T00:13:27;1.73;;;0.70;;
61956;SDS011;47916;45.544;10.166;2022-09-02T00:13:39;1.50;;;0.60;;
61956;SDS011;47916;45.544;10.166;2022-09-02T00:13:50;2.10;;;0.77;;
61956;SDS011;47916;45.544;10.166;2022-09-02T00:14:03;2.35;;;0.88;;
61956;SDS011;47916;45.544;10.166;2022-09-02T00:14:19;1.80;;;0.90;;
61956;SDS011;47916;45.544;10.166;2022-09-02T00:14:32;5.88;;;0.75;;
61956;SDS011;47916;45.544;10.166;2022-09-02T00:14:44;8.00;;;0.80;;
61956;SDS011;47916;45.544;10.166;2022-09-02T00:14:55;3.78;;;0.77;;
61956;SDS011;47916;45.544;10.166;2022-09-02T00:15:06;3.45;;;0.77;;
61956;SDS011;47916;45.544;10.166;2022-09-02T00:15:18;2.67;;;0.93;;
61956;SDS011;47916;45.544;10.166;2022-09-02T00:15:31;2.15;;;0.82;;
61956;SDS011;47916;45.544;10.166;2022-09-02T00:15:42;2.55;;;0.90;;
61956;SDS011;47916;45.544;10.166;2022-09-02T00:15:54;2.90;;;0.90;;
61956;SDS011;47916;45.544;10.166;2022-09-02T00:16:05;3.15;;;0.95;;
61956;SDS011;47916;45.544;10.166;2022-09-02T00:16:17;2.83;;;0.73;;
61956;SDS011;47916;45.544;10.166;2022-09-02T00:16:28;4.78;;;0.75;;
61956;SDS011;47916;45.544;10.166;2022-09-02T00:16:40;4.40;;;0.80;;
61956;SDS011;47916;45.544;10.166;2022-09-02T00:16:51;3.38;;;0.82;;
61956;SDS011;47916;45.544;10.166;2022-09-02T00:17:03;2.60;;;0.80;;
61956;SDS011;47916;45.544;10.166;2022-09-02T00:17:14;2.55;;;0.80;;
61956;SDS011;47916;45.544;10.166;2022-09-02T00:17:25;2.30;;;0.88;;
61956;SDS011;47916;45.544;10.166;2022-09-02T00:17:37;1.83;;;1.00;;
61956;SDS011;47916;45.544;10.166;2022-09-02T00:17:52;1.58;;;0.90;;
61956;SDS011;47916;45.544;10.166;2022-09-02T00:18:04;1.45;;;0.75;;
61956;SDS011;47916;45.544;10.166;2022-09-02T00:18:21;3.33;;;1.00;;
61956;SDS011;47916;45.544;10.166;2022-09-02T00:18:32;4.13;;;1.15;;
61956;SDS011;47916;45.544;10.166;2022-09-02T00:18:43;2.88;;;0.82;;
61956;SDS011;47916;45.544;10.166;2022-09-02T00:18:56;1.58;;;0.70;;
61956;SDS011;47916;45.544;10.166;2022-09-02T00:19:07;1.45;;;0.65;;
61956;SDS011;47916;45.544;10.166;2022-09-02T00:19:19;1.77;;;0.80;;
61956;SDS011;47916;45.544;10.166;2022-09-02T00:19:31;3.33;;;0.95;;
61956;SDS011;47916;45.544;10.166;2022-09-02T00:19:42;3.35;;;0.90;;
61956;SDS011;47916;45.544;10.166;2022-09-02T00:19:54;2.95;;;0.93;;
61956;SDS011;47916;45.544;10.166;2022-09-02T00:20:06;4.30;;;0.95;;
61956;SDS011;47916;45.544;10.166;2022-09-02T00:20:18;4.72;;;0.90;;
61956;SDS011;47916;45.544;10.166;2022-09-02T00:20:29;2.92;;;0.70;;
61956;SDS011;47916;45.544;10.166;2022-09-02T00:20:42;1.85;;;0.60;;
61956;SDS011;47916;45.544;10.166;2022-09-02T00:20:53;1.50;;;0.60;;
61956;SDS011;47916;45.544;10.166;2022-09-02T00:21:05;1.17;;;0.70;;
61956;SDS011;47916;45.544;10.166;2022-09-02T00:21:17;2.10;;;0.73;;
61956;SDS011;47916;45.544;10.166;2022-09-02T00:21:29;3.55;;;0.80;;
61956;SDS011;47916;45.544;10.166;2022-09-02T00:21:41;4.15;;;0.77;;
61956;SDS011;47916;45.544;10.166;2022-09-02T00:21:53;4.10;;;0.80;;
61956;SDS011;47916;45.544;10.166;2022-09-02T00:22:04;1.98;;;0.70;;
61956;SDS011;47916;45.544;10.166;2022-09-02T00:22:15;1.90;;;0.65;;
61956;SDS011;47916;45.544;10.166;2022-09-02T00:22:27;1.35;;;0.60;;
61956;SDS011;47916;45.544;10.166;2022-09-02T00:22:40;1.20;;;0.68;;
61956;SDS011;47916;45.544;10.166;2022-09-02T00:22:51;1.33;;;0.80;;
61956;SDS011;47916;45.544;10.166;2022-09-02T00:23:02;1.60;;;0.80;;
61956;SDS011;47916;45.544;10.166;2022-09-02T00:23:14;1.80;;;0.80;;
61956;SDS011;47916;45.544;10.166;2022-09-02T00:23:26;2.90;;;0.70;;
61956;SDS011;47916;45.544;10.166;2022-09-02T00:23:37;2.60;;;0.68;;
61956;SDS011;47916;45.544;10.166;2022-09-02T00:23:49;1.38;;;0.70;;
61956;SDS011;47916;45.544;10.166;2022-09-02T00:24:01;1.45;;;0.68;;
61956;SDS011;47916;45.544;10.166;2022-09-02T00:24:13;2.00;;;0.70;;
61956;SDS011;47916;45.544;10.166;2022-09-02T00:24:25;3.30;;;0.80;;
61956;SDS011;47916;45.544;10.166;2022-09-02T00:24:36;3.70;;;0.80;;
61956;SDS011;47916;45.544;10.166;2022-09-02T00:24:47;3.40;;;0.75;;
61956;SDS011;47916;45.544;10.166;2022-09-02T00:24:59;2.47;;;0.98;;
61956;SDS011;47916;45.544;10.166;2022-09-02T00:25:10;3.50;;;1.40;;
61956;SDS011;47916;45.544;10.166;2022-09-02T00:25:21;4.10;;;1.48;;
61956;SDS011;47916;45.544;10.166;2022-09-02T00:25:34;3.20;;;1.05;;
61956;SDS011;47916;45.544;10.166;2022-09-02T00:25:45;2.25;;;0.73;;
61956;SDS011;47916;45.544;10.166;2022-09-02T00:25:57;1.70;;;0.63;;
61956;SDS011;47916;45.544;10.166;2022-09-02T00:26:08;3.25;;;0.95;;
61956;SDS011;47916;45.544;10.166;2022-09-02T00:26:19;2.72;;;1.00;;
61956;SDS011;47916;45.544;10.166;2022-09-02T00:26:31;6.82;;;1.48;;
61956;SDS011;47916;45.544;10.166;2022-09-02T00:26:43;6.57;;;1.30;;
61956;SDS011;47916;45.544;10.166;2022-09-02T00:26:54;6.53;;;1.27;;
61956;SDS011;47916;45.544;10.166;2022-09-02T00:27:10;1.23;;;0.63;;
61956;SDS011;47916;45.544;10.166;2022-09-02T00:27:21;1.30;;;0.60;;
61956;SDS011;47916;45.544;10.166;2022-09-02T00:27:32;1.58;;;0.57;;
61956;SDS011;47916;45.544;10.166;2022-09-02T00:27:44;1.77;;;0.60;;
61956;SDS011;47916;45.544;10.166;2022-09-02T00:27:55;2.60;;;0.93;;
61956;SDS011;47916;45.544;10.166;2022-09-02T00:28:06;3.00;;;1.25;;
61956;SDS011;47916;45.544;10.166;2022-09-02T00:28:18;3.47;;;1.33;;
61956;SDS011;47916;45.544;10.166;2022-09-02T00:28:30;3.58;;;1.40;;
61956;SDS011;47916;45.544;10.166;2022-09-02T00:28:42;4.95;;;1.85;;
61956;SDS011;47916;45.544;10.166;2022-09-02T00:29:06;5.93;;;2.15;;
61956;SDS011;47916;45.544;10.166;2022-09-02T00:29:17;3.78;;;1.60;;
61956;SDS011;47916;45.544;10.166;2022-09-02T00:29:28;2.80;;;1.02;;
61956;SDS011;47916;45.544;10.166;2022-09-02T00:29:40;1.83;;;0.90;;
61956;SDS011;47916;45.544;10.166;2022-09-02T00:29:51;2.10;;;0.93;;
61956;SDS011;47916;45.544;10.166;2022-09-02T00:30:03;2.00;;;0.77;;
61956;SDS011;47916;45.544;10.166;2022-09-02T00:30:15;2.10;;;0.73;;
61956;SDS011;47916;45.544;10.166;2022-09-02T00:30:26;2.25;;;0.63;;
61956;SDS011;47916;45.544;10.166;2022-09-02T00:30:37;1.95;;;0.57;;
61956;SDS011;47916;45.544;10.166;2022-09-02T00:30:49;1.67;;;0.60;;
61956;SDS011;47916;45.544;10.166;2022-09-02T00:31:00;2.70;;;0.60;;
61956;SDS011;47916;45.544;10.166;2022-09-02T00:31:12;2.97;;;0.65;;
61956;SDS011;47916;45.544;10.166;2022-09-02T00:31:26;2.17;;;0.70;;
61956;SDS011;47916;45.544;10.166;2022-09-02T00:31:37;2.28;;;0.77;;
61956;SDS011;47916;45.544;10.166;2022-09-02T00:31:49;3.38;;;0.77;;
61956;SDS011;47916;45.544;10.166;2022-09-02T00:32:00;3.30;;;0.88;;
61956;SDS011;47916;45.544;10.166;2022-09-02T00:32:11;3.35;;;1.20;;
61956;SDS011;47916;45.544;10.166;2022-09-02T00:32:23;3.50;;;1.40;;
61956;SDS011;47916;45.544;10.166;2022-09-02T00:32:34;3.83;;;1.33;;
61956;SDS011;47916;45.544;10.166;2022-09-02T00:32:45;3.17;;;1.10;;
61956;SDS011;47916;45.544;10.166;2022-09-02T00:32:57;3.25;;;1.10;;
61956;SDS011;47916;45.544;10.166;2022-09-02T00:33:08;3.28;;;1.10;;
61956;SDS011;47916;45.544;10.166;2022-09-02T00:33:19;2.58;;;1.02;;
61956;SDS011;47916;45.544;10.166;2022-09-02T00:33:31;2.60;;;0.90;;
61956;SDS011;47916;45.544;10.166;2022-09-02T00:33:43;1.95;;;0.88;;
61956;SDS011;47916;45.544;10.166;2022-09-02T00:33:54;1.80;;;0.80;;
61956;SDS011;47916;45.544;10.166;2022-09-02T00:34:05;1.52;;;0.80;;
61956;SDS011;47916;45.544;10.166;2022-09-02T00:34:17;1.80;;;1.00;;
61956;SDS011;47916;45.544;10.166;2022-09-02T00:34:28;2.78;;;1.00;;
61956;SDS011;47916;45.544;10.166;2022-09-02T00:34:39;3.63;;;1.10;;
61956;SDS011;47916;45.544;10.166;2022-09-02T00:34:51;3.30;;;0.98;;
61956;SDS011;47916;45.544;10.166;2022-09-02T00:35:02;3.13;;;1.08;;
61956;SDS011;47916;45.544;10.166;2022-09-02T00:35:13;2.38;;;0.80;;
61956;SDS011;47916;45.544;10.166;2022-09-02T00:35:25;2.17;;;0.73;;
61956;SDS011;47916;45.544;10.166;2022-09-02T00:35:36;1.45;;;0.70;;
61956;SDS011;47916;45.544;10.166;2022-09-02T00:35:47;1.58;;;0.80;;
61956;SDS011;47916;45.544;10.166;2022-09-02T00:35:59;1.95;;;0.98;;
61956;SDS011;47916;45.544;10.166;2022-09-02T00:36:11;4.68;;;1.75;;
61956;SDS011;47916;45.544;10.166;2022-09-02T00:36:22;6.53;;;2.67;;
61956;SDS011;47916;45.544;10.166;2022-09-02T00:36:34;6.65;;;2.85;;
61956;SDS011;47916;45.544;10.166;2022-09-02T00:36:45;5.35;;;2.08;;
61956;SDS011;47916;45.544;10.166;2022-09-02T00:36:56;2.72;;;0.98;;
61956;SDS011;47916;45.544;10.166;2022-09-02T00:37:07;2.30;;;0.88;;
61956;SDS011;47916;45.544;10.166;2022-09-02T00:37:19;2.20;;;0.80;;
61956;SDS011;47916;45.544;10.166;2022-09-02T00:37:30;2.22;;;0.70;;
61956;SDS011;47916;45.544;10.166;2022-09-02T00:37:41;2.25;;;0.85;;
61956;SDS011;47916;45.544;10.166;2022-09-02T00:37:53;3.38;;;1.55;;
61956;SDS011;47916;45.544;10.166;2022-09-02T00:38:04;4.22;;;1.88;;
61956;SDS011;47916;45.544;10.166;2022-09-02T00:38:16;4.05;;;1.58;;
61956;SDS011;47916;45.544;10.166;2022-09-02T00:38:27;3.67;;;1.02;;
61956;SDS011;47916;45.544;10.166;2022-09-02T00:38:39;2.92;;;0.90;;
61956;SDS011;47916;45.544;10.166;2022-09-02T00:38:51;3.67;;;0.85;;
61956;SDS011;47916;45.544;10.166;2022-09-02T00:39:03;2.85;;;0.70;;
61956;SDS011;47916;45.544;10.166;2022-09-02T00:39:14;2.05;;;0.52;;
61956;SDS011;47916;45.544;10.166;2022-09-02T00:39:26;1.73;;;0.60;;
61956;SDS011;47916;45.544;10.166;2022-09-02T00:39:37;2.67;;;0.75;;
61956;SDS011;47916;45.544;10.166;2022-09-02T00:39:49;2.22;;;0.77;;
61956;SDS011;47916;45.544;10.166;2022-09-02T00:40:00;2.55;;;0.93;;
61956;SDS011;47916;45.544;10.166;2022-09-02T00:40:12;2.60;;;1.15;;
61956;SDS011;47916;45.544;10.166;2022-09-02T00:40:24;4.45;;;1.92;;
61956;SDS011;47916;45.544;10.166;2022-09-02T00:40:36;4.53;;;1.90;;
61956;SDS011;47916;45.544;10.166;2022-09-02T00:40:49;3.03;;;1.30;;
61956;SDS011;47916;45.544;10.166;2022-09-02T00:41:01;2.05;;;0.90;;
61956;SDS011;47916;45.544;10.166;2022-09-02T00:41:13;2.22;;;0.90;;
61956;SDS011;47916;45.544;10.166;2022-09-02T00:41:26;3.08;;;1.08;;
61956;SDS011;47916;45.544;10.166;2022-09-02T00:41:39;4.80;;;1.63;;
61956;SDS011;47916;45.544;10.166;2022-09-02T00:41:50;4.50;;;1.40;;
61956;SDS011;47916;45.544;10.166;2022-09-02T00:42:04;3.03;;;0.93;;
61956;SDS011;47916;45.544;10.166;2022-09-02T00:42:15;2.15;;;0.60;;
61956;SDS011;47916;45.544;10.166;2022-09-02T00:42:27;2.92;;;0.70;;
61956;SDS011;47916;45.544;10.166;2022-09-02T00:42:38;2.97;;;0.80;;
61956;SDS011;47916;45.544;10.166;2022-09-02T00:42:50;3.53;;;0.90;;
61956;SDS011;47916;45.544;10.166;2022-09-02T00:43:04;2.42;;;0.73;;
61956;SDS011;47916;45.544;10.166;2022-09-02T00:43:23;2.00;;;0.68;;
61956;SDS011;47916;45.544;10.166;2022-09-02T00:43:51;2.00;;;0.80;;
61956;SDS011;47916;45.544;10.166;2022-09-02T00:44:04;2.92;;;1.38;;
61956;SDS011;47916;45.544;10.166;2022-09-02T00:44:16;2.88;;;1.50;;
61956;SDS011;47916;45.544;10.166;2022-09-02T00:44:29;2.63;;;1.27;;
61956;SDS011;47916;45.544;10.166;2022-09-02T00:44:40;1.95;;;0.95;;
61956;SDS011;47916;45.544;10.166;2022-09-02T00:44:52;1.25;;;0.80;;
61956;SDS011;47916;45.544;10.166;2022-09-02T00:45:03;0.98;;;0.65;;
61956;SDS011;47916;45.544;10.166;2022-09-02T00:45:15;1.40;;;0.70;;
61956;SDS011;47916;45.544;10.166;2022-09-02T00:45:27;2.30;;;0.70;;
61956;SDS011;47916;45.544;10.166;2022-09-02T00:45:38;2.63;;;0.90;;
61956;SDS011;47916;45.544;10.166;2022-09-02T00:45:50;3.08;;;0.88;;
61956;SDS011;47916;45.544;10.166;2022-09-02T00:46:01;2.95;;;0.88;;
61956;SDS011;47916;45.544;10.166;2022-09-02T00:46:14;3.83;;;0.90;;
61956;SDS011;47916;45.544;10.166;2022-09-02T00:46:27;3.80;;;0.90;;
61956;SDS011;47916;45.544;10.166;2022-09-02T00:46:40;3.30;;;0.82;;
61956;SDS011;47916;45.544;10.166;2022-09-02T00:46:52;3.20;;;0.90;;
61956;SDS011;47916;45.544;10.166;2022-09-02T00:47:03;4.20;;;1.23;;
61956;SDS011;47916;45.544;10.166;2022-09-02T00:47:14;5.38;;;1.33;;
61956;SDS011;47916;45.544;10.166;2022-09-02T00:47:25;5.68;;;1.23;;
61956;SDS011;47916;45.544;10.166;2022-09-02T00:47:37;4.20;;;0.80;;
61956;SDS011;47916;45.544;10.166;2022-09-02T00:47:48;1.30;;;0.55;;
61956;SDS011;47916;45.544;10.166;2022-09-02T00:48:00;1.30;;;0.60;;
61956;SDS011;47916;45.544;10.166;2022-09-02T00:48:11;2.03;;;0.65;;
61956;SDS011;47916;45.544;10.166;2022-09-02T00:48:23;2.20;;;0.70;;
61956;SDS011;47916;45.544;10.166;2022-09-02T00:48:34;2.08;;;0.60;;
61956;SDS011;47916;45.544;10.166;2022-09-02T00:49:29;3.83;;;1.05;;
61956;SDS011;47916;45.544;10.166;2022-09-02T00:49:42;2.67;;;0.90;;
61956;SDS011;47916;45.544;10.166;2022-09-02T00:49:55;2.85;;;0.77;;
61956;SDS011;47916;45.544;10.166;2022-09-02T00:50:08;3.00;;;0.70;;
61956;SDS011;47916;45.544;10.166;2022-09-02T00:50:22;4.25;;;0.90;;
61956;SDS011;47916;45.544;10.166;2022-09-02T00:50:35;3.38;;;0.95;;
61956;SDS011;47916;45.544;10.166;2022-09-02T00:50:46;2.83;;;0.98;;
61956;SDS011;47916;45.544;10.166;2022-09-02T00:50:58;3.30;;;1.27;;
61956;SDS011;47916;45.544;10.166;2022-09-02T00:51:10;3.25;;;1.20;;
61956;SDS011;47916;45.544;10.166;2022-09-02T00:51:22;2.55;;;1.02;;
61956;SDS011;47916;45.544;10.166;2022-09-02T00:51:38;3.50;;;0.90;;
61956;SDS011;47916;45.544;10.166;2022-09-02T00:52:12;2.67;;;0.82;;
61956;SDS011;47916;45.544;10.166;2022-09-02T00:52:25;1.70;;;1.00;;
61956;SDS011;47916;45.544;10.166;2022-09-02T00:52:40;1.27;;;1.00;;
61956;SDS011;47916;45.544;10.166;2022-09-02T00:52:54;1.42;;;0.88;;
61956;SDS011;47916;45.544;10.166;2022-09-02T00:53:08;3.85;;;0.85;;
61956;SDS011;47916;45.544;10.166;2022-09-02T00:53:20;6.30;;;0.80;;
61956;SDS011;47916;45.544;10.166;2022-09-02T00:53:31;6.70;;;0.80;;
61956;SDS011;47916;45.544;10.166;2022-09-02T00:53:43;2.15;;;0.90;;
61956;SDS011;47916;45.544;10.166;2022-09-02T00:53:54;3.30;;;1.25;;
61956;SDS011;47916;45.544;10.166;2022-09-02T00:54:06;4.68;;;1.98;;
61956;SDS011;47916;45.544;10.166;2022-09-02T00:54:18;5.32;;;2.33;;
61956;SDS011;47916;45.544;10.166;2022-09-02T00:54:31;3.45;;;1.80;;
61956;SDS011;47916;45.544;10.166;2022-09-02T00:55:04;3.17;;;1.55;;
61956;SDS011;47916;45.544;10.166;2022-09-02T00:55:19;1.10;;;0.73;;
61956;SDS011;47916;45.544;10.166;2022-09-02T00:55:32;1.40;;;0.77;;
61956;SDS011;47916;45.544;10.166;2022-09-02T00:55:46;2.35;;;0.93;;
61956;SDS011;47916;45.544;10.166;2022-09-02T00:55:57;2.20;;;0.93;;
61956;SDS011;47916;45.544;10.166;2022-09-02T00:56:13;2.53;;;0.93;;
61956;SDS011;47916;45.544;10.166;2022-09-02T00:56:26;2.63;;;1.02;;
61956;SDS011;47916;45.544;10.166;2022-09-02T00:56:38;1.45;;;0.90;;
61956;SDS011;47916;45.544;10.166;2022-09-02T00:56:50;1.40;;;0.80;;
61956;SDS011;47916;45.544;10.166;2022-09-02T00:57:07;2.20;;;0.88;;
61956;SDS011;47916;45.544;10.166;2022-09-02T00:57:21;2.90;;;0.80;;
61956;SDS011;47916;45.544;10.166;2022-09-02T00:57:35;2.92;;;0.82;;
61956;SDS011;47916;45.544;10.166;2022-09-02T00:57:54;1.65;;;0.80;;
61956;SDS011;47916;45.544;10.166;2022-09-02T00:58:08;2.13;;;0.90;;
61956;SDS011;47916;45.544;10.166;2022-09-02T00:58:25;3.40;;;1.10;;
61956;SDS011;47916;45.544;10.166;2022-09-02T00:58:37;3.65;;;1.00;;
61956;SDS011;47916;45.544;10.166;2022-09-02T00:58:49;7.05;;;1.02;;
61956;SDS011;47916;45.544;10.166;2022-09-02T00:59:01;6.07;;;0.95;;
61956;SDS011;47916;45.544;10.166;2022-09-02T00:59:14;4.15;;;1.02;;
61956;SDS011;47916;45.544;10.166;2022-09-02T00:59:47;4.55;;;1.20;;
61956;SDS011;47916;45.544;10.166;2022-09-02T01:00:09;2.75;;;1.00;;
61956;SDS011;47916;45.544;10.166;2022-09-02T01:00:23;2.45;;;0.90;;
61956;SDS011;47916;45.544;10.166;2022-09-02T01:00:42;2.25;;;0.77;;
61956;SDS011;47916;45.544;10.166;2022-09-02T01:00:55;1.77;;;0.80;;
61956;SDS011;47916;45.544;10.166;2022-09-02T01:01:07;2.55;;;0.90;;
61956;SDS011;47916;45.544;10.166;2022-09-02T01:01:19;2.70;;;0.90;;
61956;SDS011;47916;45.544;10.166;2022-09-02T01:01:30;2.88;;;0.93;;
61956;SDS011;47916;45.544;10.166;2022-09-02T01:01:42;2.28;;;1.00;;
61956;SDS011;47916;45.544;10.166;2022-09-02T01:01:55;2.80;;;1.10;;
61956;SDS011;47916;45.544;10.166;2022-09-02T01:02:07;2.60;;;1.02;;
61956;SDS011;47916;45.544;10.166;2022-09-02T01:02:19;3.42;;;1.10;;
61956;SDS011;47916;45.544;10.166;2022-09-02T01:02:30;3.13;;;1.10;;
61956;SDS011;47916;45.544;10.166;2022-09-02T01:02:43;2.20;;;0.90;;
61956;SDS011;47916;45.544;10.166;2022-09-02T01:02:57;3.00;;;0.88;;
61956;SDS011;47916;45.544;10.166;2022-09-02T01:03:10;3.47;;;1.00;;
61956;SDS011;47916;45.544;10.166;2022-09-02T01:03:23;2.72;;;1.00;;
61956;SDS011;47916;45.544;10.166;2022-09-02T01:03:35;3.85;;;1.10;;
61956;SDS011;47916;45.544;10.166;2022-09-02T01:03:47;3.83;;;1.02;;
61956;SDS011;47916;45.544;10.166;2022-09-02T01:03:58;2.08;;;0.88;;
61956;SDS011;47916;45.544;10.166;2022-09-02T01:04:10;1.65;;;0.90;;
61956;SDS011;47916;45.544;10.166;2022-09-02T01:04:22;1.90;;;1.10;;
61956;SDS011;47916;45.544;10.166;2022-09-02T01:04:33;2.40;;;1.35;;
61956;SDS011;47916;45.544;10.166;2022-09-02T01:04:44;3.17;;;1.67;;
61956;SDS011;47916;45.544;10.166;2022-09-02T01:04:56;4.20;;;1.50;;
61956;SDS011;47916;45.544;10.166;2022-09-02T01:05:09;3.25;;;1.10;;
61956;SDS011;47916;45.544;10.166;2022-09-02T01:05:21;2.83;;;0.85;;
61956;SDS011;47916;45.544;10.166;2022-09-02T01:05:34;2.92;;;0.90;;
61956;SDS011;47916;45.544;10.166;2022-09-02T01:05:49;3.42;;;0.88;;
61956;SDS011;47916;45.544;10.166;2022-09-02T01:06:01;3.50;;;0.90;;
61956;SDS011;47916;45.544;10.166;2022-09-02T01:06:13;1.63;;;0.80;;
61956;SDS011;47916;45.544;10.166;2022-09-02T01:06:26;2.08;;;0.80;;
61956;SDS011;47916;45.544;10.166;2022-09-02T01:06:37;3.10;;;0.90;;
61956;SDS011;47916;45.544;10.166;2022-09-02T01:06:49;3.45;;;0.90;;
61956;SDS011;47916;45.544;10.166;2022-09-02T01:07:00;2.75;;;0.85;;
61956;SDS011;47916;45.544;10.166;2022-09-02T01:07:11;3.50;;;0.80;;
61956;SDS011;47916;45.544;10.166;2022-09-02T01:07:23;4.60;;;1.00;;
61956;SDS011;47916;45.544;10.166;2022-09-02T01:07:37;5.22;;;1.00;;
61956;SDS011;47916;45.544;10.166;2022-09-02T01:07:49;6.40;;;1.40;;
61956;SDS011;47916;45.544;10.166;2022-09-02T01:08:01;5.60;;;1.92;;
61956;SDS011;47916;45.544;10.166;2022-09-02T01:08:14;4.75;;;1.83;;
61956;SDS011;47916;45.544;10.166;2022-09-02T01:08:28;4.63;;;1.50;;
61956;SDS011;47916;45.544;10.166;2022-09-02T01:08:42;3.47;;;1.30;;
61956;SDS011;47916;45.544;10.166;2022-09-02T01:08:57;4.57;;;2.00;;
61956;SDS011;47916;45.544;10.166;2022-09-02T01:09:11;5.80;;;2.50;;
61956;SDS011;47916;45.544;10.166;2022-09-02T01:09:22;5.13;;;2.22;;
61956;SDS011;47916;45.544;10.166;2022-09-02T01:09:34;5.28;;;1.90;;
61956;SDS011;47916;45.544;10.166;2022-09-02T01:09:45;5.70;;;2.53;;
61956;SDS011;47916;45.544;10.166;2022-09-02T01:09:57;7.32;;;3.17;;
61956;SDS011;47916;45.544;10.166;2022-09-02T01:10:09;6.80;;;2.78;;
61956;SDS011;47916;45.544;10.166;2022-09-02T01:10:25;5.32;;;1.98;;
61956;SDS011;47916;45.544;10.166;2022-09-02T01:10:37;2.30;;;1.08;;
61956;SDS011;47916;45.544;10.166;2022-09-02T01:10:48;1.73;;;0.88;;
61956;SDS011;47916;45.544;10.166;2022-09-02T01:11:00;2.15;;;0.90;;
61956;SDS011;47916;45.544;10.166;2022-09-02T01:11:11;2.08;;;0.98;;
61956;SDS011;47916;45.544;10.166;2022-09-02T01:11:25;1.70;;;0.80;;
61956;SDS011;47916;45.544;10.166;2022-09-02T01:11:44;2.28;;;0.70;;
61956;SDS011;47916;45.544;10.166;2022-09-02T01:11:56;2.72;;;0.85;;
61956;SDS011;47916;45.544;10.166;2022-09-02T01:12:07;1.92;;;0.88;;
61956;SDS011;47916;45.544;10.166;2022-09-02T01:12:18;1.55;;;0.90;;
61956;SDS011;47916;45.544;10.166;2022-09-02T01:12:30;3.22;;;1.50;;
61956;SDS011;47916;45.544;10.166;2022-09-02T01:12:42;4.38;;;1.50;;
61956;SDS011;47916;45.544;10.166;2022-09-02T01:12:54;3.53;;;0.95;;
61956;SDS011;47916;45.544;10.166;2022-09-02T01:13:07;3.28;;;1.02;;
61956;SDS011;47916;45.544;10.166;2022-09-02T01:13:19;3.20;;;1.02;;
61956;SDS011;47916;45.544;10.166;2022-09-02T01:13:34;3.00;;;1.00;;
61956;SDS011;47916;45.544;10.166;2022-09-02T01:13:46;3.88;;;1.23;;
61956;SDS011;47916;45.544;10.166;2022-09-02T01:13:57;4.05;;;1.52;;
61956;SDS011;47916;45.544;10.166;2022-09-02T01:14:08;4.00;;;1.60;;
61956;SDS011;47916;45.544;10.166;2022-09-02T01:14:20;4.65;;;1.48;;